createdAt,value
2023-04-17T00:02:10.771Z,95672.34
2023-04-17T00:04:38.199Z,95668.59
2023-04-17T00:07:04.878Z,95674.84
2023-04-17T00:09:31.566Z,95670.00
2023-04-17T00:11:58.217Z,95680.56
2023-04-17T00:14:25.182Z,95675.72
2023-04-17T00:16:51.920Z,95674.66
2023-04-17T00:19:18.646Z,95680.63
2023-04-17T00:21:45.205Z,95675.78
2023-04-17T00:24:11.858Z,95672.06
2023-04-17T00:26:39.184Z,95674.25
2023-04-17T00:29:05.812Z,95674.81
2023-04-17T00:31:32.493Z,95668.88
2023-04-17T00:33:59.160Z,95670.78
2023-04-17T00:36:26.005Z,95671.84
2023-04-17T00:38:52.606Z,95660.28
2023-04-17T00:41:19.152Z,95667.28
2023-04-17T00:43:45.793Z,95668.88
2023-04-17T00:46:12.739Z,95661.63
2023-04-17T00:48:39.602Z,95658.09
2023-04-17T00:51:06.437Z,95659.72
2023-04-17T00:53:33.745Z,95649.22
2023-04-17T00:56:01.408Z,95652.19
2023-04-17T00:58:28.282Z,95650.06
2023-04-17T01:00:54.954Z,95646.06
2023-04-17T01:03:22.117Z,95655.22
2023-04-17T01:05:51.405Z,95653.38
2023-04-17T01:08:19.176Z,95649.34
2023-04-17T01:10:46.408Z,95660.66
2023-04-17T01:13:13.036Z,95657.75
2023-04-17T01:15:41.845Z,95654.00
2023-04-17T01:18:09.181Z,95648.91
2023-04-17T01:20:36.221Z,95657.00
2023-04-17T01:23:03.111Z,95655.88
2023-04-17T01:25:30.017Z,95659.91
2023-04-17T01:27:56.820Z,95654.75
2023-04-17T01:30:24.153Z,95651.50
2023-04-17T01:33:01.633Z,95657.69
2023-04-17T01:35:28.650Z,95653.88
2023-04-17T01:37:55.764Z,95651.41
2023-04-17T01:40:22.534Z,95649.75
2023-04-17T01:42:49.228Z,95642.72
2023-04-17T01:45:16.277Z,95645.63
2023-04-17T01:47:42.976Z,95649.38
2023-04-17T01:50:10.224Z,95646.69
2023-04-17T01:52:36.879Z,95646.97
2023-04-17T01:55:04.176Z,95645.06
2023-04-17T01:57:31.499Z,95641.59
2023-04-17T01:59:58.338Z,95648.34
2023-04-17T02:02:25.140Z,95645.13
2023-04-17T02:04:51.887Z,95653.22
2023-04-17T02:07:18.726Z,95653.78
2023-04-17T02:09:45.275Z,95657.53
2023-04-17T02:12:11.859Z,95653.53
2023-04-17T02:14:38.875Z,95660.00
2023-04-17T02:17:05.830Z,95656.78
2023-04-17T02:19:32.765Z,95660.84
2023-04-17T02:22:02.663Z,95662.22
2023-04-17T02:24:30.535Z,95653.59
2023-04-17T02:27:00.164Z,95647.41
2023-04-17T02:29:26.838Z,95649.31
2023-04-17T02:31:53.819Z,95660.38
2023-04-17T02:34:20.406Z,95659.81
2023-04-17T02:36:48.818Z,95653.94
2023-04-17T02:39:15.777Z,95649.88
2023-04-17T02:41:42.996Z,95647.75
2023-04-17T02:44:10.416Z,95655.03
2023-04-17T02:46:37.807Z,95659.91
2023-04-17T02:49:04.451Z,95662.09
2023-04-17T02:51:31.121Z,95653.47
2023-04-17T02:53:57.709Z,95657.25
2023-04-17T02:56:24.423Z,95650.25
2023-04-17T02:58:50.993Z,95649.75
2023-04-17T03:01:17.722Z,95656.72
2023-04-17T03:03:45.873Z,95653.81
2023-04-17T03:06:14.465Z,95655.69
2023-04-17T03:08:41.872Z,95664.28
2023-04-17T03:11:08.654Z,95648.41
2023-04-17T03:13:35.694Z,95654.03
2023-04-17T03:16:02.594Z,95647.00
2023-04-17T03:18:29.332Z,95649.13
2023-04-17T03:20:56.231Z,95648.03
2023-04-17T03:23:22.864Z,95658.19
2023-04-17T03:25:50.545Z,95661.63
2023-04-17T03:28:17.544Z,95663.22
2023-04-17T03:30:44.477Z,95659.94
2023-04-17T03:33:11.135Z,95661.00
2023-04-17T03:35:37.692Z,95657.47
2023-04-17T03:38:07.269Z,95663.88
2023-04-17T03:40:34.565Z,95657.66
2023-04-17T03:43:01.563Z,95651.69
2023-04-17T03:45:29.243Z,95662.25
2023-04-17T03:47:56.040Z,95657.03
2023-04-17T03:50:22.699Z,95661.06
2023-04-17T03:52:55.048Z,95651.06
2023-04-17T03:55:25.078Z,95658.31
2023-04-17T03:57:52.637Z,95657.75
2023-04-17T04:00:20.485Z,95653.41
2023-04-17T04:02:51.038Z,95658.25
2023-04-17T04:05:23.482Z,95661.94
2023-04-17T04:07:50.133Z,95668.41
2023-04-17T04:10:24.100Z,95662.44
2023-04-17T04:12:50.689Z,95669.44
2023-04-17T04:15:17.819Z,95666.16
2023-04-17T04:17:47.257Z,95672.59
2023-04-17T04:20:13.871Z,95659.63
2023-04-17T04:22:40.835Z,95660.66
2023-04-17T04:25:08.148Z,95666.84
2023-04-17T04:27:46.888Z,95656.59
2023-04-17T04:30:14.064Z,95659.31
2023-04-17T04:32:43.942Z,95659.59
2023-04-17T04:35:10.573Z,95660.66
2023-04-17T04:37:37.216Z,95668.75
2023-04-17T04:40:08.226Z,95665.56
2023-04-17T04:42:35.052Z,95663.66
2023-04-17T04:45:11.736Z,95667.97
2023-04-17T04:47:38.562Z,95675.78
2023-04-17T04:50:05.599Z,95675.50
2023-04-17T04:52:32.615Z,95672.50
2023-04-17T04:55:04.531Z,95680.28
2023-04-17T04:57:33.301Z,95680.53
2023-04-17T05:00:02.035Z,95686.97
2023-04-17T05:02:37.085Z,95693.69
2023-04-17T05:05:05.861Z,95702.53
2023-04-17T05:07:33.951Z,95704.34
2023-04-17T05:10:01.052Z,95702.72
2023-04-17T05:12:31.953Z,95700.22
2023-04-17T05:14:58.549Z,95702.06
2023-04-17T05:17:25.234Z,95706.59
2023-04-17T05:19:52.874Z,95702.25
2023-04-17T05:22:20.777Z,95706.78
2023-04-17T05:25:05.054Z,95707.00
2023-04-17T05:27:31.697Z,95707.50
2023-04-17T05:29:59.016Z,95704.53
2023-04-17T05:32:25.929Z,95711.25
2023-04-17T05:34:57.946Z,95718.78
2023-04-17T05:37:27.176Z,95720.91
2023-04-17T05:39:55.284Z,95719.00
2023-04-17T05:42:22.059Z,95723.03
2023-04-17T05:44:49.039Z,95720.56
2023-04-17T05:47:15.608Z,95721.06
2023-04-17T05:49:42.256Z,95712.66
2023-04-17T05:52:09.683Z,95717.28
2023-04-17T05:54:40.428Z,95708.31
2023-04-17T05:57:08.483Z,95702.34
2023-04-17T05:59:35.810Z,95709.34
2023-04-17T06:02:02.601Z,95703.94
2023-04-17T06:04:29.470Z,95713.16
2023-04-17T06:06:56.244Z,95706.63
2023-04-17T06:09:25.214Z,95713.94
2023-04-17T06:11:52.430Z,95716.66
2023-04-17T06:14:19.114Z,95713.16
2023-04-17T06:16:46.726Z,95722.34
2023-04-17T06:19:16.313Z,95717.72
2023-04-17T06:21:44.877Z,95723.97
2023-04-17T06:24:11.588Z,95729.06
2023-04-17T06:26:43.721Z,95720.97
2023-04-17T06:29:10.673Z,95719.84
2023-04-17T06:31:37.940Z,95730.97
2023-04-17T06:34:04.950Z,95726.09
2023-04-17T06:36:37.727Z,95732.06
2023-04-17T06:39:04.697Z,95733.66
2023-04-17T06:41:32.418Z,95731.78
2023-04-17T06:44:00.588Z,95735.34
2023-04-17T06:46:42.885Z,95740.16
2023-04-17T06:49:09.774Z,95744.19
2023-04-17T06:51:36.671Z,95749.00
2023-04-17T06:54:03.299Z,95744.09
2023-04-17T06:56:29.863Z,95746.22
2023-04-17T06:58:56.476Z,95746.47
2023-04-17T07:01:23.064Z,95741.00
2023-04-17T07:03:49.877Z,95747.94
2023-04-17T07:06:16.664Z,95751.34
2023-04-17T07:08:43.292Z,95745.06
2023-04-17T07:11:09.911Z,95743.41
2023-04-17T07:13:36.515Z,95746.63
2023-04-17T07:16:03.788Z,95756.06
2023-04-17T07:18:30.600Z,95745.44
2023-04-17T07:20:57.276Z,95748.66
2023-04-17T07:23:26.400Z,95752.09
2023-04-17T07:25:53.308Z,95754.50
2023-04-17T07:28:19.957Z,95753.69
2023-04-17T07:30:46.552Z,95754.50
2023-04-17T07:33:13.310Z,95755.81
2023-04-17T07:35:40.199Z,95749.59
2023-04-17T07:38:06.793Z,95754.44
2023-04-17T07:40:36.506Z,95761.97
2023-04-17T07:43:03.117Z,95761.38
2023-04-17T07:45:29.797Z,95766.19
2023-04-17T07:47:56.555Z,95762.38
2023-04-17T07:50:23.266Z,95767.19
2023-04-17T07:52:49.854Z,95771.75
2023-04-17T07:55:16.454Z,95773.06
2023-04-17T07:57:43.109Z,95765.44
2023-04-17T08:00:11.035Z,95778.09
2023-04-17T08:02:41.377Z,95779.91
2023-04-17T08:05:08.689Z,95788.78
2023-04-17T08:07:36.220Z,95786.78
2023-04-17T08:10:04.147Z,95786.97
2023-04-17T08:12:30.697Z,95790.22
2023-04-17T08:14:57.271Z,95791.22
2023-04-17T08:17:23.950Z,95784.91
2023-04-17T08:19:50.564Z,95790.22
2023-04-17T08:22:17.391Z,95789.63
2023-04-17T08:24:44.060Z,95782.53
2023-04-17T08:27:10.601Z,95788.97
2023-04-17T08:29:37.205Z,95787.28
2023-04-17T08:32:13.966Z,95793.19
2023-04-17T08:34:44.299Z,95790.41
2023-04-17T08:37:10.863Z,95791.09
2023-04-17T08:39:37.692Z,95792.91
2023-04-17T08:42:10.026Z,95786.13
2023-04-17T08:44:38.663Z,95791.72
2023-04-17T08:47:06.426Z,95790.84
2023-04-17T08:49:34.937Z,95794.88
2023-04-17T08:52:05.460Z,95794.75
2023-04-17T08:54:32.663Z,95800.66
2023-04-17T08:57:02.650Z,95793.56
2023-04-17T08:59:29.297Z,95791.56
2023-04-17T09:02:07.922Z,95798.31
2023-04-17T09:04:37.418Z,95800.91
2023-04-17T09:07:08.564Z,95796.22
2023-04-17T09:09:54.275Z,95798.03
2023-04-17T09:12:25.762Z,95794.59
2023-04-17T09:14:53.015Z,95796.41
2023-04-17T09:17:21.365Z,95795.16
2023-04-17T09:20:07.994Z,95793.16
2023-04-17T09:22:36.496Z,95787.31
2023-04-17T09:25:03.724Z,95794.25
2023-04-17T09:27:30.691Z,95791.72
2023-04-17T09:30:02.922Z,95788.00
2023-04-17T09:32:34.204Z,95792.72
2023-04-17T09:35:03.083Z,95788.78
2023-04-17T09:37:55.622Z,95788.97
2023-04-17T09:40:23.677Z,95787.13
2023-04-17T09:42:54.124Z,95782.09
2023-04-17T09:45:21.607Z,95785.91
2023-04-17T09:47:48.591Z,95784.47
2023-04-17T09:50:16.592Z,95797.13
2023-04-17T09:52:43.506Z,95787.78
2023-04-17T09:55:11.851Z,95787.25
2023-04-17T09:57:38.713Z,95787.75
2023-04-17T10:00:06.300Z,95793.66
2023-04-17T10:02:33.486Z,95786.34
2023-04-17T10:05:00.613Z,95791.94
2023-04-17T10:07:27.254Z,95787.00
2023-04-17T10:09:53.908Z,95787.47
2023-04-17T10:12:21.225Z,95787.69
2023-04-17T10:14:51.421Z,95787.31
2023-04-17T10:17:29.359Z,95787.00
2023-04-17T10:19:55.963Z,95791.25
2023-04-17T10:22:22.672Z,95787.78
2023-04-17T10:25:12.843Z,95793.13
2023-04-17T10:27:39.589Z,95790.75
2023-04-17T10:30:08.368Z,95786.00
2023-04-17T10:32:35.086Z,95784.78
2023-04-17T10:35:22.453Z,95784.34
2023-04-17T10:37:49.041Z,95788.25
2023-04-17T10:40:19.868Z,95786.38
2023-04-17T10:43:05.161Z,95771.41
2023-04-17T10:45:58.153Z,95766.63
2023-04-17T10:48:30.241Z,95778.03
2023-04-17T10:50:57.209Z,95768.28
2023-04-17T10:53:41.840Z,95764.13
2023-04-17T10:56:10.386Z,95767.53
2023-04-17T10:58:56.625Z,95764.31
2023-04-17T11:01:29.012Z,95764.81
2023-04-17T11:03:56.690Z,95764.81
2023-04-17T11:06:27.352Z,95765.59
2023-04-17T11:08:57.181Z,95763.38
2023-04-17T11:11:35.267Z,95752.19
2023-04-17T11:14:18.297Z,95761.31
2023-04-17T11:16:47.534Z,95756.84
2023-04-17T11:19:22.063Z,95752.03
2023-04-17T11:21:56.256Z,95751.72
2023-04-17T11:24:32.454Z,95753.66
2023-04-17T11:27:00.450Z,95749.34
2023-04-17T11:29:27.806Z,95755.13
2023-04-17T11:31:56.625Z,95754.19
2023-04-17T11:34:25.943Z,95750.19
2023-04-17T11:36:54.548Z,95760.44
2023-04-17T11:39:22.782Z,95761.25
2023-04-17T11:41:51.556Z,95757.22
2023-04-17T11:44:19.203Z,95760.75
2023-04-17T11:46:50.386Z,95761.09
2023-04-17T11:49:23.396Z,95755.78
2023-04-17T11:51:50.035Z,95755.94
2023-04-17T11:54:31.156Z,95749.41
2023-04-17T11:57:02.814Z,95744.75
2023-04-17T11:59:37.397Z,95739.63
2023-04-17T12:02:06.259Z,95750.06
2023-04-17T12:04:34.570Z,95752.16
2023-04-17T12:07:02.910Z,95748.28
2023-04-17T12:09:29.527Z,95740.59
2023-04-17T12:11:56.188Z,95742.50
2023-04-17T12:14:24.076Z,95737.53
2023-04-17T12:16:51.773Z,95734.47
2023-04-17T12:19:18.744Z,95733.16
2023-04-17T12:21:46.107Z,95725.59
2023-04-17T12:24:12.999Z,95721.03
2023-04-17T12:26:47.102Z,95719.56
2023-04-17T12:29:14.485Z,95714.50
2023-04-17T12:31:41.203Z,95709.13
2023-04-17T12:34:08.014Z,95710.75
2023-04-17T12:36:34.777Z,95701.75
2023-04-17T12:39:01.609Z,95707.88
2023-04-17T12:41:28.191Z,95700.63
2023-04-17T12:43:54.848Z,95705.38
2023-04-17T12:46:21.852Z,95705.72
2023-04-17T12:48:48.449Z,95703.25
2023-04-17T12:51:15.219Z,95702.56
2023-04-17T12:53:41.781Z,95697.91
2023-04-17T12:56:08.409Z,95698.91
2023-04-17T12:58:35.047Z,95693.66
2023-04-17T13:01:01.661Z,95695.00
2023-04-17T13:03:28.479Z,95687.81
2023-04-17T13:05:55.213Z,95687.91
2023-04-17T13:08:21.769Z,95686.41
2023-04-17T13:10:48.371Z,95683.06
2023-04-17T13:13:15.004Z,95681.69
2023-04-17T13:15:42.018Z,95672.38
2023-04-17T13:18:08.764Z,95678.41
2023-04-17T13:20:35.372Z,95668.75
2023-04-17T13:23:01.963Z,95676.38
2023-04-17T13:25:30.289Z,95675.16
2023-04-17T13:27:56.897Z,95667.34
2023-04-17T13:30:23.528Z,95672.75
2023-04-17T13:32:50.237Z,95669.78
2023-04-17T13:35:16.935Z,95670.75
2023-04-17T13:37:43.534Z,95666.28
2023-04-17T13:40:10.438Z,95667.78
2023-04-17T13:42:37.196Z,95665.38
2023-04-17T13:45:04.813Z,95668.34
2023-04-17T13:47:31.510Z,95666.59
2023-04-17T13:49:58.199Z,95665.44
2023-04-17T13:52:24.940Z,95659.53
2023-04-17T13:54:51.480Z,95648.47
2023-04-17T13:57:18.160Z,95656.34
2023-04-17T13:59:45.074Z,95654.06
2023-04-17T14:02:11.810Z,95655.13
2023-04-17T14:04:38.698Z,95653.88
2023-04-17T14:07:05.990Z,95658.22
2023-04-17T14:09:32.715Z,95655.50
2023-04-17T14:11:59.357Z,95650.47
2023-04-17T14:14:25.936Z,95647.50
2023-04-17T14:16:53.585Z,95651.06
2023-04-17T14:19:20.404Z,95656.41
2023-04-17T14:21:47.212Z,95649.56
2023-04-17T14:24:13.966Z,95645.19
2023-04-17T14:26:40.676Z,95640.41
2023-04-17T14:29:07.275Z,95649.41
2023-04-17T14:31:33.925Z,95642.44
2023-04-17T14:34:00.513Z,95642.19
2023-04-17T14:36:27.260Z,95645.28
2023-04-17T14:38:53.849Z,95642.22
2023-04-17T14:41:20.588Z,95639.88
2023-04-17T14:43:47.360Z,95630.47
2023-04-17T14:46:17.103Z,95629.72
2023-04-17T14:48:55.056Z,95636.22
2023-04-17T14:51:25.472Z,95626.59
2023-04-17T14:53:53.091Z,95616.81
2023-04-17T14:56:20.332Z,95619.72
2023-04-17T14:58:46.999Z,95616.69
2023-04-17T15:01:13.619Z,95618.38
2023-04-17T15:03:40.592Z,95615.69
2023-04-17T15:06:08.579Z,95609.06
2023-04-17T15:08:35.164Z,95611.16
2023-04-17T15:11:01.837Z,95606.72
2023-04-17T15:13:28.457Z,95606.78
2023-04-17T15:15:55.085Z,95608.56
2023-04-17T15:18:21.758Z,95609.59
2023-04-17T15:20:48.440Z,95607.91
2023-04-17T15:23:15.068Z,95607.41
2023-04-17T15:25:41.751Z,95605.69
2023-04-17T15:28:08.563Z,95606.97
2023-04-17T15:30:35.258Z,95609.00
2023-04-17T15:33:02.003Z,95603.81
2023-04-17T15:35:28.638Z,95604.69
2023-04-17T15:37:55.241Z,95614.22
2023-04-17T15:40:21.884Z,95617.78
2023-04-17T15:42:48.552Z,95605.47
2023-04-17T15:45:15.115Z,95608.56
2023-04-17T15:47:41.736Z,95611.47
2023-04-17T15:50:08.888Z,95603.28
2023-04-17T15:52:35.439Z,95600.47
2023-04-17T15:55:02.148Z,95605.22
2023-04-17T15:57:28.927Z,95601.31
2023-04-17T15:59:55.487Z,95596.09
2023-04-17T16:02:22.738Z,95606.69
2023-04-17T16:04:49.503Z,95602.69
2023-04-17T16:07:16.076Z,95599.75
2023-04-17T16:09:42.625Z,95612.56
2023-04-17T16:12:10.267Z,95609.25
2023-04-17T16:14:37.919Z,95609.06
2023-04-17T16:17:05.005Z,95613.63
2023-04-17T16:19:32.398Z,95615.09
2023-04-17T16:21:59.401Z,95615.38
2023-04-17T16:24:26.407Z,95615.66
2023-04-17T16:27:01.800Z,95618.19
2023-04-17T16:29:28.417Z,95611.94
2023-04-17T16:31:55.627Z,95623.38
2023-04-17T16:34:22.641Z,95619.94
2023-04-17T16:36:49.515Z,95626.78
2023-04-17T16:39:16.275Z,95630.53
2023-04-17T16:41:43.354Z,95625.31
2023-04-17T16:44:13.286Z,95628.72
2023-04-17T16:47:02.911Z,95628.63
2023-04-17T16:49:27.542Z,95627.69
2023-04-17T16:51:54.091Z,95628.84
2023-04-17T16:54:20.732Z,95627.50
2023-04-17T16:56:48.612Z,95633.44
2023-04-17T16:59:15.548Z,95633.06
2023-04-17T17:01:42.456Z,95637.09
2023-04-17T17:04:09.165Z,95638.13
2023-04-17T17:06:35.849Z,95642.06
2023-04-17T17:09:02.733Z,95648.00
2023-04-17T17:11:29.584Z,95649.16
2023-04-17T17:13:56.162Z,95647.53
2023-04-17T17:16:22.892Z,95646.91
2023-04-17T17:18:49.526Z,95650.75
2023-04-17T17:21:17.204Z,95657.91
2023-04-17T17:23:43.797Z,95662.78
2023-04-17T17:26:10.354Z,95655.03
2023-04-17T17:28:37.411Z,95659.59
2023-04-17T17:31:07.708Z,95663.78
2023-04-17T17:33:35.491Z,95671.56
2023-04-17T17:36:02.352Z,95665.66
2023-04-17T17:38:35.063Z,95673.34
2023-04-17T17:41:01.731Z,95669.50
2023-04-17T17:43:28.426Z,95676.53
2023-04-17T17:45:55.076Z,95673.81
2023-04-17T17:48:21.730Z,95677.34
2023-04-17T17:50:48.311Z,95675.41
2023-04-17T17:53:14.869Z,95680.38
2023-04-17T17:55:41.520Z,95671.88
2023-04-17T17:58:08.974Z,95681.81
2023-04-17T18:00:35.700Z,95669.00
2023-04-17T18:03:02.900Z,95679.88
2023-04-17T18:05:29.634Z,95674.91
2023-04-17T18:07:56.255Z,95673.13
2023-04-17T18:10:22.975Z,95679.53
2023-04-17T18:12:49.553Z,95677.13
2023-04-17T18:15:16.266Z,95688.63
2023-04-17T18:17:42.840Z,95685.56
2023-04-17T18:20:09.898Z,95689.56
2023-04-17T18:22:36.492Z,95690.50
2023-04-17T18:25:03.099Z,95691.13
2023-04-17T18:27:29.746Z,95691.75
2023-04-17T18:29:56.445Z,95694.47
2023-04-17T18:32:23.126Z,95688.22
2023-04-17T18:34:49.696Z,95696.06
2023-04-17T18:37:18.139Z,95696.06
2023-04-17T18:39:45.182Z,95702.31
2023-04-17T18:42:11.746Z,95701.19
2023-04-17T18:44:38.431Z,95700.88
2023-04-17T18:47:05.184Z,95703.56
2023-04-17T18:49:31.800Z,95702.78
2023-04-17T18:51:58.507Z,95706.28
2023-04-17T18:54:25.190Z,95705.50
2023-04-17T18:56:51.831Z,95705.97
2023-04-17T18:59:18.433Z,95711.41
2023-04-17T19:01:45.016Z,95704.88
2023-04-17T19:04:11.753Z,95705.66
2023-04-17T19:06:38.565Z,95711.09
2023-04-17T19:09:05.262Z,95704.09
2023-04-17T19:11:32.054Z,95711.41
2023-04-17T19:13:58.645Z,95713.34
2023-04-17T19:16:25.395Z,95709.53
2023-04-17T19:18:51.985Z,95704.72
2023-04-17T19:21:18.640Z,95709.31
2023-04-17T19:23:45.269Z,95705.81
2023-04-17T19:26:11.946Z,95707.59
2023-04-17T19:28:38.594Z,95706.13
2023-04-17T19:31:05.222Z,95704.66
2023-04-17T19:33:32.522Z,95709.69
2023-04-17T19:35:59.637Z,95703.28
2023-04-17T19:38:26.291Z,95703.09
2023-04-17T19:41:11.801Z,95708.34
2023-04-17T19:43:38.442Z,95704.84
2023-04-17T19:46:05.050Z,95712.16
2023-04-17T19:48:31.777Z,95707.56
2023-04-17T19:50:58.369Z,95706.75
2023-04-17T19:53:24.929Z,95709.13
2023-04-17T19:55:51.492Z,95699.88
2023-04-17T19:58:18.352Z,95706.13
2023-04-17T20:00:44.917Z,95700.38
2023-04-17T20:03:11.710Z,95697.66
2023-04-17T20:05:38.373Z,95693.03
2023-04-17T20:08:05.217Z,95690.81
2023-04-17T20:10:31.875Z,95692.41
2023-04-17T20:12:58.472Z,95688.56
2023-04-17T20:15:25.081Z,95687.47
2023-04-17T20:17:51.721Z,95696.09
2023-04-17T20:20:18.315Z,95689.56
2023-04-17T20:22:44.938Z,95690.34
2023-04-17T20:25:11.519Z,95695.00
2023-04-17T20:27:38.097Z,95685.75
2023-04-17T20:30:05.186Z,95693.06
2023-04-17T20:32:31.866Z,95687.63
2023-04-17T20:34:58.559Z,95690.34
2023-04-17T20:37:25.348Z,95686.84
2023-04-17T20:39:51.949Z,95695.00
2023-04-17T20:42:18.532Z,95687.94
2023-04-17T20:44:45.152Z,95694.50
2023-04-17T20:47:11.821Z,95694.81
2023-04-17T20:49:38.379Z,95692.41
2023-04-17T20:52:04.975Z,95693.03
2023-04-17T20:54:31.584Z,95700.69
2023-04-17T20:56:58.244Z,95692.84
2023-04-17T20:59:24.908Z,95695.41
2023-04-17T21:01:51.538Z,95699.25
2023-04-17T21:04:18.262Z,95696.31
2023-04-17T21:06:45.026Z,95702.06
2023-04-17T21:09:11.572Z,95697.75
2023-04-17T21:11:38.244Z,95697.75
2023-04-17T21:14:04.851Z,95688.50
2023-04-17T21:16:31.671Z,95690.41
2023-04-17T21:18:58.300Z,95688.50
2023-04-17T21:21:24.910Z,95693.91
2023-04-17T21:23:51.812Z,95685.47
2023-04-17T21:26:18.382Z,95691.72
2023-04-17T21:28:44.958Z,95690.59
2023-04-17T21:31:14.501Z,95692.50
2023-04-17T21:33:41.136Z,95689.47
2023-04-17T21:36:07.757Z,95690.59
2023-04-17T21:38:34.318Z,95694.13
2023-04-17T21:41:01.087Z,95689.78
2023-04-17T21:43:27.642Z,95689.00
2023-04-17T21:45:54.258Z,95689.31
2023-04-17T21:48:20.891Z,95680.66
2023-04-17T21:50:47.459Z,95680.66
2023-04-17T21:53:14.141Z,95689.09
2023-04-17T21:55:40.728Z,95684.28
2023-04-17T21:58:07.355Z,95680.00
2023-04-17T22:00:33.918Z,95686.06
2023-04-17T22:03:00.705Z,95689.38
2023-04-17T22:05:27.547Z,95689.69
2023-04-17T22:07:55.312Z,95687.59
2023-04-17T22:10:22.912Z,95680.84
2023-04-17T22:12:49.471Z,95685.34
2023-04-17T22:15:16.227Z,95687.22
2023-04-17T22:17:42.849Z,95679.38
2023-04-17T22:20:09.867Z,95680.22
2023-04-17T22:22:36.550Z,95685.94
2023-04-17T22:25:03.268Z,95681.63
2023-04-17T22:27:29.850Z,95683.06
2023-04-17T22:29:56.516Z,95682.53
2023-04-17T22:32:23.118Z,95681.28
2023-04-17T22:34:50.084Z,95676.16
2023-04-17T22:37:16.644Z,95676.78
2023-04-17T22:39:43.358Z,95671.66
2023-04-17T22:42:09.940Z,95674.66
2023-04-17T22:44:36.679Z,95680.41
2023-04-17T22:47:03.373Z,95670.97
2023-04-17T22:49:30.021Z,95675.28
2023-04-17T22:51:56.749Z,95672.09
2023-04-17T22:54:23.555Z,95666.16
2023-04-17T22:56:50.169Z,95668.88
2023-04-17T22:59:16.786Z,95674.59
2023-04-17T23:01:43.386Z,95672.72
2023-04-17T23:04:10.003Z,95668.69
2023-04-17T23:06:36.685Z,95671.41
2023-04-17T23:09:03.273Z,95674.41
2023-04-17T23:11:31.754Z,95683.66
2023-04-17T23:13:58.423Z,95682.38
2023-04-17T23:16:25.120Z,95678.53
2023-04-17T23:18:51.909Z,95678.53
2023-04-17T23:21:18.538Z,95677.44
2023-04-17T23:23:45.162Z,95675.22
2023-04-17T23:26:15.081Z,95679.06
2023-04-17T23:28:41.684Z,95668.19
2023-04-17T23:31:08.437Z,95674.72
2023-04-17T23:33:35.079Z,95669.91
2023-04-17T23:36:01.887Z,95669.44
2023-04-17T23:38:28.543Z,95667.81
2023-04-17T23:40:55.270Z,95664.31
2023-04-17T23:43:21.842Z,95661.13
2023-04-17T23:45:48.551Z,95660.28
2023-04-17T23:48:15.089Z,95658.72
2023-04-17T23:50:41.841Z,95656.78
2023-04-17T23:53:08.478Z,95659.81
2023-04-17T23:55:35.126Z,95659.81
2023-04-17T23:58:01.852Z,95649.25
